createdAt,value
2019-05-29T00:00:42.474Z,7.00
2019-05-29T00:01:49.228Z,7.00
2019-05-29T00:02:57.640Z,7.00
2019-05-29T00:04:04.578Z,7.00
2019-05-29T00:05:12.783Z,7.00
2019-05-29T00:06:19.974Z,6.90
2019-05-29T00:07:27.522Z,6.90
2019-05-29T00:08:34.306Z,6.90
2019-05-29T00:09:41.883Z,6.90
2019-05-29T00:10:49.041Z,6.90
2019-05-29T00:11:56.624Z,6.90
2019-05-29T00:13:03.735Z,6.90
2019-05-29T00:14:24.982Z,6.90
2019-05-29T00:15:20.067Z,6.90
2019-05-29T00:16:27.968Z,7.00
2019-05-29T00:17:35.609Z,6.90
2019-05-29T00:18:43.285Z,7.00
2019-05-29T00:19:50.486Z,7.00
2019-05-29T00:20:58.527Z,7.00
2019-05-29T00:22:06.210Z,6.90
2019-05-29T00:23:14.657Z,7.00
2019-05-29T00:24:21.595Z,7.00
2019-05-29T00:25:29.128Z,6.90
2019-05-29T00:26:36.492Z,6.90
2019-05-29T00:27:44.401Z,6.90
2019-05-29T00:28:51.178Z,6.90
2019-05-29T00:29:58.860Z,6.90
2019-05-29T00:31:05.869Z,6.80
2019-05-29T00:32:15.073Z,6.80
2019-05-29T00:33:22.251Z,6.80
2019-05-29T00:34:30.133Z,6.80
2019-05-29T00:35:36.895Z,6.80
2019-05-29T00:36:44.900Z,6.70
2019-05-29T00:37:52.019Z,6.70
2019-05-29T00:38:59.635Z,6.70
2019-05-29T00:40:08.895Z,6.70
2019-05-29T00:41:17.170Z,6.60
2019-05-29T00:42:24.276Z,6.60
2019-05-29T00:43:31.811Z,6.60
2019-05-29T00:44:39.118Z,6.60
2019-05-29T00:45:47.255Z,6.60
2019-05-29T00:46:54.348Z,6.50
2019-05-29T00:48:02.351Z,6.50
2019-05-29T00:49:09.726Z,6.50
2019-05-29T00:50:17.593Z,6.40
2019-05-29T00:51:24.640Z,6.40
2019-05-29T00:52:32.183Z,6.40
2019-05-29T00:53:39.248Z,6.30
2019-05-29T00:54:46.893Z,6.30
2019-05-29T00:55:54.011Z,6.30
2019-05-29T00:57:01.931Z,6.30
2019-05-29T00:58:09.064Z,6.30
2019-05-29T00:59:17.407Z,6.30
2019-05-29T01:00:24.441Z,6.30
2019-05-29T01:01:33.841Z,6.30
2019-05-29T01:02:40.799Z,6.30
2019-05-29T01:03:48.488Z,6.20
2019-05-29T01:04:55.223Z,6.20
2019-05-29T01:06:02.758Z,6.20
2019-05-29T01:07:10.218Z,6.20
2019-05-29T01:08:18.465Z,6.20
2019-05-29T01:09:25.747Z,6.20
2019-05-29T01:10:33.285Z,6.10
2019-05-29T01:11:40.434Z,6.10
2019-05-29T01:12:48.841Z,6.10
2019-05-29T01:13:56.147Z,6.10
2019-05-29T01:15:04.391Z,6.00
2019-05-29T01:16:11.359Z,6.00
2019-05-29T01:17:19.834Z,5.90
2019-05-29T01:18:26.787Z,5.90
2019-05-29T01:19:34.644Z,5.90
2019-05-29T01:20:41.473Z,5.80
2019-05-29T01:21:49.008Z,5.80
2019-05-29T01:22:56.092Z,5.80
2019-05-29T01:24:03.671Z,5.80
2019-05-29T01:25:10.728Z,5.80
2019-05-29T01:26:18.669Z,5.80
2019-05-29T01:27:25.444Z,5.70
2019-05-29T01:28:33.019Z,5.70
2019-05-29T01:29:40.139Z,5.70
2019-05-29T01:30:51.328Z,5.70
2019-05-29T01:31:56.839Z,5.70
2019-05-29T01:33:04.378Z,5.70
2019-05-29T01:34:11.148Z,5.70
2019-05-29T01:35:20.060Z,5.70
2019-05-29T01:36:27.092Z,5.70
2019-05-29T01:37:35.095Z,5.70
2019-05-29T01:38:41.842Z,5.70
2019-05-29T01:39:49.761Z,5.70
2019-05-29T01:40:57.128Z,5.70
2019-05-29T01:42:04.683Z,5.70
2019-05-29T01:43:11.432Z,5.60
2019-05-29T01:44:19.314Z,5.70
2019-05-29T01:45:26.183Z,5.60
2019-05-29T01:46:33.862Z,5.60
2019-05-29T01:47:41.234Z,5.50
2019-05-29T01:48:49.090Z,5.50
2019-05-29T01:49:56.164Z,5.40
2019-05-29T01:51:03.715Z,5.40
2019-05-29T01:52:10.667Z,5.30
2019-05-29T01:53:18.212Z,5.30
2019-05-29T01:54:25.626Z,5.30
2019-05-29T01:55:34.140Z,5.40
2019-05-29T01:56:41.272Z,5.40
2019-05-29T01:57:48.845Z,5.30
2019-05-29T01:58:55.902Z,5.30
2019-05-29T02:00:03.429Z,5.30
2019-05-29T02:01:10.472Z,5.40
2019-05-29T02:02:19.823Z,5.40
2019-05-29T02:03:28.151Z,5.40
2019-05-29T02:04:35.909Z,5.30
2019-05-29T02:05:44.701Z,5.30
2019-05-29T02:06:52.254Z,5.30
2019-05-29T02:07:59.308Z,5.30
2019-05-29T02:09:08.831Z,5.30
2019-05-29T02:10:16.389Z,5.30
2019-05-29T02:11:24.287Z,5.20
2019-05-29T02:12:31.703Z,5.20
2019-05-29T02:13:39.256Z,5.10
2019-05-29T02:14:46.704Z,5.10
2019-05-29T02:15:54.589Z,5.20
2019-05-29T02:17:01.648Z,5.20
2019-05-29T02:18:09.548Z,5.20
2019-05-29T02:19:16.305Z,5.20
2019-05-29T02:20:25.236Z,5.20
2019-05-29T02:21:32.830Z,5.20
2019-05-29T02:22:40.740Z,5.20
2019-05-29T02:23:47.902Z,5.20
2019-05-29T02:24:55.810Z,5.20
2019-05-29T02:26:02.590Z,5.20
2019-05-29T02:27:10.136Z,5.10
2019-05-29T02:28:17.023Z,5.10
2019-05-29T02:29:24.858Z,5.10
2019-05-29T02:30:31.976Z,5.10
2019-05-29T02:31:39.533Z,5.10
2019-05-29T02:32:46.301Z,5.10
2019-05-29T02:33:54.296Z,5.10
2019-05-29T02:35:01.444Z,5.10
2019-05-29T02:36:09.384Z,5.10
2019-05-29T02:37:18.151Z,5.10
2019-05-29T02:38:27.194Z,5.00
2019-05-29T02:39:34.451Z,5.00
2019-05-29T02:40:42.027Z,4.90
2019-05-29T02:41:48.782Z,4.90
2019-05-29T02:42:56.819Z,4.80
2019-05-29T02:44:03.911Z,4.80
2019-05-29T02:45:12.127Z,4.80
2019-05-29T02:46:19.561Z,4.80
2019-05-29T02:47:28.036Z,4.80
2019-05-29T02:48:35.473Z,4.90
2019-05-29T02:49:43.051Z,4.80
2019-05-29T02:50:50.216Z,4.90
2019-05-29T02:51:58.021Z,4.80
2019-05-29T02:53:05.364Z,4.80
2019-05-29T02:54:12.937Z,4.80
2019-05-29T02:55:20.632Z,4.90
2019-05-29T02:56:29.099Z,4.80
2019-05-29T02:57:36.642Z,4.80
2019-05-29T02:58:44.260Z,4.80
2019-05-29T02:59:51.006Z,4.80
2019-05-29T03:00:58.943Z,4.90
2019-05-29T03:02:06.094Z,4.80
2019-05-29T03:03:13.642Z,4.80
2019-05-29T03:04:21.690Z,4.80
2019-05-29T03:05:29.926Z,4.80
2019-05-29T03:06:36.835Z,4.80
2019-05-29T03:07:44.743Z,4.70
2019-05-29T03:08:52.121Z,4.70
2019-05-29T03:09:59.759Z,4.70
2019-05-29T03:11:06.832Z,4.70
2019-05-29T03:12:14.925Z,4.70
2019-05-29T03:13:22.971Z,4.70
2019-05-29T03:14:31.808Z,4.70
2019-05-29T03:15:39.524Z,4.70
2019-05-29T03:16:47.121Z,4.70
2019-05-29T03:17:54.077Z,4.70
2019-05-29T03:19:01.892Z,4.70
2019-05-29T03:20:09.265Z,4.60
2019-05-29T03:21:16.823Z,4.60
2019-05-29T03:22:24.129Z,4.60
2019-05-29T03:23:33.942Z,4.60
2019-05-29T03:24:40.256Z,4.60
2019-05-29T03:25:47.838Z,4.60
2019-05-29T03:26:54.901Z,4.60
2019-05-29T03:28:02.535Z,4.60
2019-05-29T03:29:09.801Z,4.60
2019-05-29T03:30:17.462Z,4.60
2019-05-29T03:31:27.069Z,4.60
2019-05-29T03:32:42.212Z,4.70
2019-05-29T03:33:48.980Z,4.70
2019-05-29T03:34:51.598Z,4.70
2019-05-29T03:35:58.554Z,4.60
2019-05-29T03:37:06.232Z,4.60
2019-05-29T03:38:13.375Z,4.60
2019-05-29T03:39:20.927Z,4.60
2019-05-29T03:40:29.041Z,4.60
2019-05-29T03:41:38.990Z,4.60
2019-05-29T03:42:46.288Z,4.60
2019-05-29T03:43:54.319Z,4.60
2019-05-29T03:45:01.366Z,4.60
2019-05-29T03:46:26.445Z,4.70
2019-05-29T03:47:17.453Z,4.70
2019-05-29T03:48:25.943Z,4.70
2019-05-29T03:49:33.713Z,4.70
2019-05-29T03:50:42.730Z,4.70
2019-05-29T03:51:49.871Z,4.70
2019-05-29T03:52:58.076Z,4.80
2019-05-29T03:54:04.852Z,4.80
2019-05-29T03:55:12.489Z,4.80
2019-05-29T03:56:19.608Z,4.80
2019-05-29T03:57:28.246Z,4.80
2019-05-29T03:58:37.775Z,4.80
2019-05-29T03:59:45.836Z,4.80
2019-05-29T04:00:52.966Z,4.80
2019-05-29T04:02:00.764Z,4.80
2019-05-29T04:03:07.944Z,4.80
2019-05-29T04:04:16.138Z,4.80
2019-05-29T04:05:23.077Z,5.00
2019-05-29T04:06:31.221Z,5.30
2019-05-29T04:07:38.604Z,5.80
2019-05-29T04:08:46.554Z,6.40
2019-05-29T04:09:53.322Z,6.80
2019-05-29T04:11:02.779Z,7.30
2019-05-29T04:12:09.988Z,7.60
2019-05-29T04:13:18.401Z,7.90
2019-05-29T04:14:25.353Z,8.20
2019-05-29T04:15:36.506Z,8.40
2019-05-29T04:16:59.107Z,8.70
2019-05-29T04:17:58.584Z,9.10
2019-05-29T04:19:06.400Z,9.40
2019-05-29T04:20:14.154Z,9.80
2019-05-29T04:21:24.192Z,10.20
2019-05-29T04:22:39.957Z,10.50
2019-05-29T04:23:50.307Z,10.70
2019-05-29T04:25:01.227Z,11.10
2019-05-29T04:26:09.449Z,11.30
2019-05-29T04:27:20.924Z,11.40
2019-05-29T04:28:30.212Z,11.60
2019-05-29T04:29:38.525Z,11.80
2019-05-29T04:30:45.690Z,11.60
2019-05-29T04:31:53.275Z,11.60
2019-05-29T04:33:00.381Z,11.80
2019-05-29T04:34:08.508Z,11.80
2019-05-29T04:35:15.385Z,12.20
2019-05-29T04:36:22.970Z,12.50
2019-05-29T04:37:30.285Z,12.50
2019-05-29T04:38:40.459Z,12.70
2019-05-29T04:39:47.251Z,12.90
2019-05-29T04:40:55.165Z,13.20
2019-05-29T04:42:02.180Z,13.40
2019-05-29T04:43:09.744Z,13.50
2019-05-29T04:44:16.883Z,13.50
2019-05-29T04:45:24.718Z,13.40
2019-05-29T04:46:31.841Z,13.50
2019-05-29T04:47:39.788Z,13.70
2019-05-29T04:48:47.098Z,13.80
2019-05-29T04:49:54.636Z,13.90
2019-05-29T04:51:01.415Z,13.90
2019-05-29T04:52:08.975Z,14.00
2019-05-29T04:53:16.270Z,14.10
2019-05-29T04:54:24.200Z,14.30
2019-05-29T04:55:31.432Z,14.60
2019-05-29T04:56:39.183Z,14.60
2019-05-29T04:57:46.733Z,14.70
2019-05-29T04:58:54.702Z,14.70
2019-05-29T05:00:02.034Z,14.40
2019-05-29T05:01:14.350Z,13.90
2019-05-29T05:02:22.853Z,13.20
2019-05-29T05:03:33.196Z,12.40
2019-05-29T05:04:43.011Z,11.70
2019-05-29T05:05:52.742Z,11.10
2019-05-29T05:07:02.738Z,10.50
2019-05-29T05:08:10.525Z,10.10
2019-05-29T05:09:17.456Z,9.70
2019-05-29T05:10:41.321Z,9.30
2019-05-29T05:11:48.597Z,9.10
2019-05-29T05:12:56.269Z,8.90
2019-05-29T05:14:03.387Z,8.80
2019-05-29T05:15:12.279Z,8.70
2019-05-29T05:16:19.114Z,8.60
2019-05-29T05:17:26.899Z,8.60
2019-05-29T05:18:33.902Z,8.60
2019-05-29T05:19:41.849Z,8.50
2019-05-29T05:20:48.635Z,8.50
2019-05-29T05:21:56.268Z,8.50
2019-05-29T05:23:03.088Z,8.50
2019-05-29T05:24:11.063Z,8.60
2019-05-29T05:25:17.869Z,8.60
2019-05-29T05:26:25.546Z,8.60
2019-05-29T05:27:32.383Z,8.70
2019-05-29T05:28:43.741Z,8.80
2019-05-29T05:29:48.484Z,8.90
2019-05-29T05:30:56.408Z,8.90
2019-05-29T05:32:03.268Z,9.10
2019-05-29T05:33:10.947Z,9.10
2019-05-29T05:34:17.803Z,9.20
2019-05-29T05:35:25.517Z,9.20
2019-05-29T05:36:32.628Z,9.20
2019-05-29T05:37:41.246Z,9.20
2019-05-29T05:38:48.518Z,9.20
2019-05-29T05:39:56.468Z,9.30
2019-05-29T05:41:03.250Z,9.30
2019-05-29T05:42:10.861Z,9.30
2019-05-29T05:43:23.978Z,9.40
2019-05-29T05:44:28.152Z,9.50
2019-05-29T05:45:35.158Z,9.50
2019-05-29T05:46:43.229Z,9.60
2019-05-29T05:47:57.565Z,9.70
2019-05-29T05:48:59.697Z,9.80
2019-05-29T05:50:07.272Z,9.80
2019-05-29T05:51:15.333Z,9.90
2019-05-29T05:52:22.138Z,9.90
2019-05-29T05:53:29.730Z,9.90
2019-05-29T05:54:37.532Z,10.00
2019-05-29T05:55:45.270Z,10.10
2019-05-29T05:56:53.617Z,10.00
2019-05-29T05:58:01.469Z,10.00
2019-05-29T05:59:08.831Z,10.00
2019-05-29T06:00:19.731Z,10.10
2019-05-29T06:01:27.199Z,10.20
2019-05-29T06:02:35.900Z,10.20
2019-05-29T06:03:43.252Z,10.30
2019-05-29T06:04:50.908Z,10.30
2019-05-29T06:05:58.065Z,10.40
2019-05-29T06:07:05.959Z,10.50
2019-05-29T06:08:12.906Z,10.50
2019-05-29T06:09:20.873Z,10.60
2019-05-29T06:10:27.765Z,10.50
2019-05-29T06:11:36.145Z,10.50
2019-05-29T06:12:43.104Z,10.50
2019-05-29T06:13:51.091Z,10.50
2019-05-29T06:14:57.924Z,10.50
2019-05-29T06:16:06.006Z,10.60
2019-05-29T06:17:13.352Z,10.70
2019-05-29T06:18:22.024Z,10.80
2019-05-29T06:19:29.467Z,11.00
2019-05-29T06:20:37.060Z,11.10
2019-05-29T06:21:44.428Z,11.10
2019-05-29T06:22:52.436Z,11.20
2019-05-29T06:23:59.242Z,11.20
2019-05-29T06:25:08.378Z,11.20
2019-05-29T06:26:15.622Z,11.10
2019-05-29T06:27:23.244Z,11.20
2019-05-29T06:28:30.167Z,11.30
2019-05-29T06:29:39.246Z,11.40
2019-05-29T06:30:46.268Z,11.40
2019-05-29T06:31:53.953Z,11.40
2019-05-29T06:33:01.108Z,11.30
2019-05-29T06:34:08.919Z,11.30
2019-05-29T06:35:16.385Z,11.30
2019-05-29T06:36:24.324Z,11.40
2019-05-29T06:37:31.131Z,11.40
2019-05-29T06:38:40.427Z,11.40
2019-05-29T06:39:47.895Z,11.40
2019-05-29T06:40:55.471Z,11.40
2019-05-29T06:42:02.286Z,11.50
2019-05-29T06:43:20.914Z,11.60
2019-05-29T06:44:29.480Z,11.70
2019-05-29T06:45:39.859Z,11.90
2019-05-29T06:46:46.810Z,12.00
2019-05-29T06:47:54.448Z,12.00
2019-05-29T06:49:01.623Z,12.10
2019-05-29T06:50:10.247Z,12.10
2019-05-29T06:51:17.543Z,12.00
2019-05-29T06:52:25.216Z,12.00
2019-05-29T06:53:32.030Z,12.10
2019-05-29T06:54:40.169Z,12.20
2019-05-29T06:55:52.933Z,12.20
2019-05-29T06:56:57.286Z,12.20
2019-05-29T06:58:04.292Z,12.20
2019-05-29T06:59:11.913Z,12.20
2019-05-29T07:00:34.361Z,12.20
2019-05-29T07:01:28.510Z,12.30
2019-05-29T07:02:36.357Z,12.30
2019-05-29T07:03:44.395Z,12.30
2019-05-29T07:04:51.592Z,12.40
2019-05-29T07:05:59.195Z,12.40
2019-05-29T07:07:06.040Z,12.50
2019-05-29T07:08:20.860Z,12.50
2019-05-29T07:09:22.178Z,12.50
2019-05-29T07:10:30.171Z,12.50
2019-05-29T07:11:37.436Z,12.50
2019-05-29T07:12:46.489Z,12.60
2019-05-29T07:13:53.305Z,12.60
2019-05-29T07:15:01.237Z,12.70
2019-05-29T07:16:08.044Z,12.80
2019-05-29T07:17:15.817Z,12.90
2019-05-29T07:18:22.864Z,12.90
2019-05-29T07:19:47.508Z,13.00
2019-05-29T07:20:39.296Z,13.10
2019-05-29T07:21:47.260Z,13.10
2019-05-29T07:22:54.881Z,13.20
2019-05-29T07:24:02.499Z,13.20
2019-05-29T07:25:09.834Z,13.10
2019-05-29T07:26:17.598Z,13.30
2019-05-29T07:27:24.733Z,13.30
2019-05-29T07:28:32.346Z,13.40
2019-05-29T07:29:39.196Z,13.50
2019-05-29T07:30:54.505Z,13.50
2019-05-29T07:31:55.787Z,13.60
2019-05-29T07:33:03.778Z,13.50
2019-05-29T07:34:10.685Z,13.60
2019-05-29T07:35:18.735Z,13.60
2019-05-29T07:36:25.552Z,13.50
2019-05-29T07:37:33.194Z,13.40
2019-05-29T07:38:44.396Z,13.50
2019-05-29T07:39:49.681Z,13.50
2019-05-29T07:40:56.497Z,13.60
2019-05-29T07:42:04.702Z,13.80
2019-05-29T07:43:11.919Z,13.90
2019-05-29T07:44:20.167Z,13.80
2019-05-29T07:45:26.973Z,13.90
2019-05-29T07:46:34.589Z,13.90
2019-05-29T07:47:42.703Z,13.90
2019-05-29T07:48:51.133Z,13.90
2019-05-29T07:49:58.052Z,13.70
2019-05-29T07:51:07.327Z,13.60
2019-05-29T07:52:14.425Z,13.60
2019-05-29T07:53:23.112Z,13.60
2019-05-29T07:54:30.679Z,13.60
2019-05-29T07:55:38.655Z,13.60
2019-05-29T07:56:46.527Z,13.70
2019-05-29T07:57:54.444Z,13.80
2019-05-29T07:59:03.548Z,13.90
2019-05-29T08:00:12.746Z,14.00
2019-05-29T08:01:19.598Z,14.10
2019-05-29T08:02:27.540Z,14.20
2019-05-29T08:03:34.352Z,14.30
2019-05-29T08:04:43.035Z,14.20
2019-05-29T08:05:52.675Z,14.10
2019-05-29T08:06:59.470Z,14.10
2019-05-29T08:08:06.591Z,14.00
2019-05-29T08:09:14.577Z,13.80
2019-05-29T08:10:22.398Z,13.60
2019-05-29T08:11:30.011Z,13.40
2019-05-29T08:12:41.518Z,13.40
2019-05-29T08:13:46.261Z,13.50
2019-05-29T08:14:53.118Z,13.50
2019-05-29T08:16:03.057Z,13.70
2019-05-29T08:17:09.326Z,13.70
2019-05-29T08:18:17.347Z,13.90
2019-05-29T08:19:24.619Z,14.00
2019-05-29T08:20:32.357Z,14.00
2019-05-29T08:21:40.925Z,13.90
2019-05-29T08:22:49.032Z,14.10
2019-05-29T08:23:55.830Z,14.10
2019-05-29T08:25:03.644Z,14.30
2019-05-29T08:26:10.458Z,14.20
2019-05-29T08:27:18.050Z,14.30
2019-05-29T08:28:24.859Z,14.20
2019-05-29T08:29:32.536Z,14.30
2019-05-29T08:30:41.562Z,14.40
2019-05-29T08:31:49.322Z,14.60
2019-05-29T08:32:56.169Z,14.60
2019-05-29T08:34:03.838Z,14.40
2019-05-29T08:35:10.673Z,14.20
2019-05-29T08:36:18.687Z,14.00
2019-05-29T08:37:25.498Z,13.90
2019-05-29T08:38:33.460Z,13.90
2019-05-29T08:39:41.184Z,14.10
2019-05-29T08:40:49.539Z,14.20
2019-05-29T08:42:21.231Z,14.50
2019-05-29T08:43:06.175Z,14.50
2019-05-29T08:44:12.976Z,14.40
2019-05-29T08:45:21.855Z,14.60
2019-05-29T08:46:28.665Z,14.80
2019-05-29T08:47:36.262Z,14.90
2019-05-29T08:48:43.708Z,14.90
2019-05-29T08:49:54.293Z,15.00
2019-05-29T08:50:59.970Z,15.00
2019-05-29T08:52:11.752Z,15.20
2019-05-29T08:53:16.100Z,15.50
2019-05-29T08:54:24.431Z,15.70
2019-05-29T08:55:31.357Z,15.80
2019-05-29T08:56:39.612Z,15.90
2019-05-29T08:57:46.438Z,16.00
2019-05-29T08:58:54.006Z,15.90
2019-05-29T09:00:01.194Z,15.80
2019-05-29T09:01:08.993Z,15.70
2019-05-29T09:02:15.850Z,15.70
2019-05-29T09:03:23.715Z,15.60
2019-05-29T09:04:30.954Z,15.50
2019-05-29T09:05:38.527Z,15.50
2019-05-29T09:06:46.820Z,15.30
2019-05-29T09:07:54.756Z,15.10
2019-05-29T09:09:01.874Z,15.00
2019-05-29T09:10:10.177Z,14.80
2019-05-29T09:11:16.997Z,14.70
2019-05-29T09:12:24.876Z,14.60
2019-05-29T09:13:31.680Z,14.50
2019-05-29T09:14:39.654Z,14.50
2019-05-29T09:15:46.735Z,14.40
2019-05-29T09:16:55.020Z,14.40
2019-05-29T09:18:07.705Z,14.40
2019-05-29T09:19:16.377Z,14.40
2019-05-29T09:20:37.073Z,14.40
2019-05-29T09:21:32.681Z,14.50
2019-05-29T09:22:39.618Z,14.70
2019-05-29T09:23:47.517Z,14.80
2019-05-29T09:24:54.327Z,15.00
2019-05-29T09:26:14.111Z,15.00
2019-05-29T09:27:10.412Z,14.90
2019-05-29T09:28:18.482Z,14.80
2019-05-29T09:29:25.546Z,14.70
2019-05-29T09:30:33.119Z,14.70
2019-05-29T09:31:39.928Z,14.70
2019-05-29T09:32:51.449Z,14.80
2019-05-29T09:33:56.229Z,14.80
2019-05-29T09:35:03.875Z,14.90
2019-05-29T09:36:11.515Z,15.10
2019-05-29T09:37:20.418Z,15.10
2019-05-29T09:38:27.562Z,15.00
2019-05-29T09:39:35.148Z,15.10
2019-05-29T09:40:42.322Z,15.10
2019-05-29T09:41:49.912Z,15.00
2019-05-29T09:42:56.714Z,14.80
2019-05-29T09:44:04.324Z,14.70
2019-05-29T09:45:11.420Z,14.60
2019-05-29T09:46:20.152Z,14.60
2019-05-29T09:47:27.604Z,14.50
2019-05-29T09:48:48.785Z,14.50
2019-05-29T09:49:44.016Z,14.40
2019-05-29T09:50:51.612Z,14.40
2019-05-29T09:51:59.966Z,14.40
2019-05-29T09:53:07.788Z,14.50
2019-05-29T09:54:14.620Z,14.70
2019-05-29T09:55:22.404Z,14.90
2019-05-29T09:56:29.563Z,15.10
2019-05-29T09:57:37.155Z,15.40
2019-05-29T09:58:44.676Z,15.50
2019-05-29T09:59:53.844Z,15.60
2019-05-29T10:01:18.391Z,15.60
2019-05-29T10:02:11.485Z,15.70
2019-05-29T10:03:18.341Z,15.70
2019-05-29T10:04:25.946Z,15.70
2019-05-29T10:05:32.765Z,15.70
2019-05-29T10:06:40.375Z,15.70
2019-05-29T10:07:47.508Z,15.80
2019-05-29T10:08:56.272Z,15.90
2019-05-29T10:10:05.144Z,16.10
2019-05-29T10:11:12.821Z,16.20
2019-05-29T10:12:20.445Z,16.30
2019-05-29T10:13:28.622Z,16.30
2019-05-29T10:14:35.523Z,16.30
2019-05-29T10:15:43.145Z,16.30
2019-05-29T10:16:50.006Z,16.20
2019-05-29T10:17:58.531Z,16.10
2019-05-29T10:19:05.992Z,15.80
2019-05-29T10:20:15.713Z,15.80
2019-05-29T10:21:38.524Z,15.70
2019-05-29T10:22:32.241Z,15.80
2019-05-29T10:23:39.530Z,15.90
2019-05-29T10:24:47.342Z,16.00
2019-05-29T10:25:56.384Z,16.20
2019-05-29T10:27:05.262Z,16.30
2019-05-29T10:28:13.388Z,16.50
2019-05-29T10:29:21.544Z,16.60
2019-05-29T10:30:29.570Z,16.70
2019-05-29T10:31:37.546Z,16.70
2019-05-29T10:32:44.664Z,16.60
2019-05-29T10:33:54.011Z,16.70
2019-05-29T10:35:01.154Z,16.80
2019-05-29T10:36:09.365Z,16.90
2019-05-29T10:37:18.188Z,17.10
2019-05-29T10:38:26.251Z,17.20
2019-05-29T10:39:33.083Z,17.20
2019-05-29T10:40:45.554Z,17.30
2019-05-29T10:41:50.963Z,17.30
2019-05-29T10:42:58.690Z,17.00
2019-05-29T10:44:06.150Z,16.80
2019-05-29T10:45:15.917Z,16.70
2019-05-29T10:46:22.885Z,16.50
2019-05-29T10:47:31.073Z,16.30
2019-05-29T10:48:38.707Z,16.30
2019-05-29T10:49:47.669Z,16.40
2019-05-29T10:50:55.435Z,16.30
2019-05-29T10:52:14.461Z,16.20
2019-05-29T10:53:12.816Z,16.20
2019-05-29T10:54:20.940Z,16.20
2019-05-29T10:55:28.224Z,16.30
2019-05-29T10:56:36.309Z,16.40
2019-05-29T10:57:44.715Z,16.60
2019-05-29T10:58:58.072Z,16.70
2019-05-29T11:00:01.969Z,16.90
2019-05-29T11:01:09.578Z,17.10
2019-05-29T11:02:16.414Z,17.20
2019-05-29T11:03:24.351Z,17.40
2019-05-29T11:04:31.223Z,17.60
2019-05-29T11:05:38.907Z,17.60
2019-05-29T11:06:46.152Z,17.40
2019-05-29T11:07:54.487Z,17.30
2019-05-29T11:09:01.295Z,17.30
2019-05-29T11:10:13.475Z,17.20
2019-05-29T11:11:21.741Z,16.80
2019-05-29T11:12:30.081Z,16.40
2019-05-29T11:13:36.894Z,16.30
2019-05-29T11:14:44.841Z,16.20
2019-05-29T11:15:52.809Z,16.10
2019-05-29T11:17:00.530Z,16.10
2019-05-29T11:18:07.333Z,16.20
2019-05-29T11:19:15.304Z,16.30
2019-05-29T11:20:22.703Z,16.50
2019-05-29T11:21:30.359Z,16.70
2019-05-29T11:22:37.402Z,16.90
2019-05-29T11:23:45.056Z,17.20
2019-05-29T11:24:52.412Z,17.40
2019-05-29T11:26:01.078Z,17.60
2019-05-29T11:27:08.323Z,17.70
2019-05-29T11:28:16.326Z,17.70
2019-05-29T11:29:23.255Z,17.80
2019-05-29T11:30:30.980Z,17.80
2019-05-29T11:31:38.192Z,17.90
2019-05-29T11:32:47.611Z,17.80
2019-05-29T11:33:54.966Z,17.70
2019-05-29T11:35:02.948Z,17.80
2019-05-29T11:36:13.364Z,17.90
2019-05-29T11:37:19.269Z,17.90
2019-05-29T11:38:26.085Z,17.80
2019-05-29T11:39:33.874Z,17.80
2019-05-29T11:40:40.946Z,17.70
2019-05-29T11:41:48.836Z,17.40
2019-05-29T11:42:56.955Z,17.40
2019-05-29T11:44:04.843Z,17.30
2019-05-29T11:45:13.138Z,17.30
2019-05-29T11:46:20.721Z,17.20
2019-05-29T11:47:27.516Z,17.40
2019-05-29T11:48:35.189Z,17.50
2019-05-29T11:49:42.052Z,17.70
2019-05-29T11:50:50.011Z,17.80
2019-05-29T11:52:18.771Z,17.90
2019-05-29T11:53:06.745Z,18.10
2019-05-29T11:54:13.746Z,18.20
2019-05-29T11:55:21.649Z,18.20
2019-05-29T11:56:28.574Z,18.10
2019-05-29T11:57:39.501Z,18.10
2019-05-29T11:58:44.979Z,18.20
2019-05-29T11:59:53.874Z,18.40
2019-05-29T12:01:01.251Z,18.40
2019-05-29T12:02:09.187Z,18.60
2019-05-29T12:03:16.133Z,18.70
2019-05-29T12:04:26.644Z,18.90
2019-05-29T12:05:32.309Z,19.10
2019-05-29T12:06:40.543Z,19.20
2019-05-29T12:07:47.731Z,19.30
2019-05-29T12:08:55.773Z,19.40
2019-05-29T12:10:04.799Z,19.40
2019-05-29T12:11:12.645Z,19.60
2019-05-29T12:12:19.869Z,19.70
2019-05-29T12:13:27.550Z,19.60
2019-05-29T12:14:34.463Z,19.60
2019-05-29T12:15:42.108Z,19.60
2019-05-29T12:16:49.383Z,19.50
2019-05-29T12:18:19.057Z,19.50
2019-05-29T12:19:06.575Z,19.50
2019-05-29T12:20:27.175Z,19.30
2019-05-29T12:21:24.026Z,19.20
2019-05-29T12:22:31.620Z,19.20
2019-05-29T12:23:38.535Z,19.30
2019-05-29T12:24:46.602Z,19.40
2019-05-29T12:26:14.963Z,19.40
2019-05-29T12:27:02.866Z,19.50
2019-05-29T12:28:10.282Z,19.60
2019-05-29T12:29:18.282Z,19.60
2019-05-29T12:30:25.788Z,19.70
2019-05-29T12:31:33.391Z,19.80
2019-05-29T12:32:40.518Z,19.80
2019-05-29T12:33:49.067Z,19.80
2019-05-29T12:34:58.215Z,19.80
2019-05-29T12:36:06.061Z,19.90
2019-05-29T12:37:13.669Z,19.90
2019-05-29T12:38:21.577Z,19.80
2019-05-29T12:39:28.461Z,19.70
2019-05-29T12:40:36.430Z,19.70
2019-05-29T12:41:43.613Z,19.70
2019-05-29T12:42:51.563Z,19.70
2019-05-29T12:43:59.398Z,19.60
2019-05-29T12:45:08.508Z,19.70
2019-05-29T12:46:16.141Z,19.30
2019-05-29T12:47:23.784Z,19.20
2019-05-29T12:48:31.306Z,19.20
2019-05-29T12:49:39.088Z,19.30
2019-05-29T12:50:46.500Z,19.20
2019-05-29T12:51:55.196Z,19.40
2019-05-29T12:53:02.286Z,19.50
2019-05-29T12:54:11.006Z,19.60
2019-05-29T12:55:18.073Z,19.70
2019-05-29T12:56:25.725Z,19.70
2019-05-29T12:57:32.608Z,19.80
2019-05-29T12:58:40.545Z,19.80
2019-05-29T12:59:47.824Z,19.70
2019-05-29T13:00:56.435Z,19.60
2019-05-29T13:02:04.749Z,19.50
2019-05-29T13:03:12.553Z,19.50
2019-05-29T13:04:19.723Z,19.50
2019-05-29T13:05:29.262Z,19.60
2019-05-29T13:06:36.094Z,19.60
2019-05-29T13:07:44.421Z,19.50
2019-05-29T13:09:02.710Z,19.60
2019-05-29T13:10:27.237Z,19.60
2019-05-29T13:11:21.117Z,19.70
2019-05-29T13:12:28.760Z,19.80
2019-05-29T13:13:35.586Z,19.80
2019-05-29T13:14:43.205Z,19.80
2019-05-29T13:15:49.993Z,19.80
2019-05-29T13:16:58.818Z,19.70
2019-05-29T13:18:09.978Z,19.60
2019-05-29T13:19:15.908Z,19.70
2019-05-29T13:20:23.115Z,19.70
2019-05-29T13:21:31.154Z,19.80
2019-05-29T13:22:37.940Z,19.80
2019-05-29T13:23:45.967Z,19.50
2019-05-29T13:24:53.001Z,19.50
2019-05-29T13:26:01.457Z,19.40
2019-05-29T13:27:08.743Z,19.30
2019-05-29T13:28:16.451Z,19.10
2019-05-29T13:29:23.312Z,19.10
2019-05-29T13:30:32.071Z,19.20
2019-05-29T13:31:38.946Z,19.30
2019-05-29T13:32:46.671Z,19.40
2019-05-29T13:33:53.511Z,19.60
2019-05-29T13:35:02.237Z,19.80
2019-05-29T13:36:09.316Z,19.90
2019-05-29T13:37:16.944Z,20.00
2019-05-29T13:38:24.096Z,20.10
2019-05-29T13:39:32.018Z,19.80
2019-05-29T13:40:39.472Z,19.70
2019-05-29T13:41:47.123Z,19.70
2019-05-29T13:42:54.283Z,19.80
2019-05-29T13:44:02.759Z,19.70
2019-05-29T13:45:18.022Z,19.80
2019-05-29T13:46:20.355Z,19.60
2019-05-29T13:47:27.220Z,19.60
2019-05-29T13:48:34.805Z,19.50
2019-05-29T13:49:41.971Z,19.40
2019-05-29T13:50:49.560Z,19.50
2019-05-29T13:51:57.171Z,19.60
2019-05-29T13:53:05.563Z,19.60
2019-05-29T13:54:17.038Z,19.60
2019-05-29T13:55:22.304Z,19.70
2019-05-29T13:56:29.456Z,19.80
2019-05-29T13:57:39.716Z,19.90
2019-05-29T13:58:45.935Z,20.00
2019-05-29T13:59:53.866Z,20.10
2019-05-29T14:01:02.353Z,20.20
2019-05-29T14:02:10.519Z,20.30
2019-05-29T14:03:17.869Z,20.30
2019-05-29T14:04:25.842Z,20.30
2019-05-29T14:05:32.942Z,20.30
2019-05-29T14:06:40.843Z,20.30
2019-05-29T14:07:47.849Z,20.40
2019-05-29T14:08:55.623Z,20.30
2019-05-29T14:10:04.252Z,20.20
2019-05-29T14:11:12.707Z,20.20
2019-05-29T14:12:20.019Z,20.20
2019-05-29T14:13:27.721Z,20.20
2019-05-29T14:14:34.889Z,20.20
2019-05-29T14:15:42.800Z,20.00
2019-05-29T14:16:49.705Z,20.00
2019-05-29T14:17:57.663Z,20.00
2019-05-29T14:19:04.839Z,20.00
2019-05-29T14:20:14.168Z,19.90
2019-05-29T14:21:21.106Z,20.00
2019-05-29T14:22:28.680Z,20.00
2019-05-29T14:23:39.397Z,19.80
2019-05-29T14:24:45.175Z,19.90
2019-05-29T14:25:52.108Z,20.20
2019-05-29T14:27:01.583Z,20.30
2019-05-29T14:28:08.812Z,20.40
2019-05-29T14:29:16.519Z,20.50
2019-05-29T14:30:24.059Z,20.60
2019-05-29T14:31:31.800Z,20.60
2019-05-29T14:32:39.099Z,20.70
2019-05-29T14:33:46.994Z,20.70
2019-05-29T14:34:54.177Z,20.60
2019-05-29T14:36:03.249Z,20.60
2019-05-29T14:37:11.648Z,20.70
2019-05-29T14:38:19.812Z,20.90
2019-05-29T14:39:26.624Z,21.00
2019-05-29T14:40:34.266Z,21.10
2019-05-29T14:41:41.501Z,21.30
2019-05-29T14:42:49.263Z,21.20
2019-05-29T14:43:56.139Z,21.00